createdAt,value
2017-11-19T00:00:33.352Z,89.28
2017-11-19T00:01:38.084Z,88.82
2017-11-19T00:02:42.792Z,88.62
2017-11-19T00:03:47.509Z,89.19
2017-11-19T00:04:52.234Z,89.32
2017-11-19T00:05:56.966Z,88.73
2017-11-19T00:07:01.679Z,88.48
2017-11-19T00:08:06.423Z,88.23
2017-11-19T00:09:11.151Z,88.95
2017-11-19T00:10:15.906Z,89.23
2017-11-19T00:11:20.598Z,89.27
2017-11-19T00:12:25.608Z,89.06
2017-11-19T00:13:30.350Z,89.29
2017-11-19T00:14:35.132Z,89.18
2017-11-19T00:15:39.843Z,89.12
2017-11-19T00:16:44.553Z,88.88
2017-11-19T00:17:49.262Z,89.12
2017-11-19T00:18:54.281Z,89.11
2017-11-19T00:19:59.018Z,88.74
2017-11-19T00:21:03.829Z,89.75
2017-11-19T00:22:09.255Z,89.59
2017-11-19T00:23:13.994Z,88.44
2017-11-19T00:24:18.765Z,88.72
2017-11-19T00:25:23.749Z,89.20
2017-11-19T00:26:28.586Z,88.44
2017-11-19T00:27:33.314Z,89.22
2017-11-19T00:28:38.072Z,88.76
2017-11-19T00:29:42.740Z,88.10
2017-11-19T00:30:47.451Z,88.18
2017-11-19T00:31:52.420Z,88.37
2017-11-19T00:32:57.207Z,88.27
2017-11-19T00:34:01.969Z,88.00
2017-11-19T00:35:06.630Z,88.58
2017-11-19T00:36:11.320Z,89.13
2017-11-19T00:37:15.996Z,89.27
2017-11-19T00:38:21.013Z,89.58
2017-11-19T00:39:25.798Z,88.49
2017-11-19T00:40:30.510Z,88.24
2017-11-19T00:41:35.220Z,88.20
2017-11-19T00:42:39.906Z,88.52
2017-11-19T00:43:44.600Z,88.63
2017-11-19T00:44:49.610Z,88.33
2017-11-19T00:45:54.684Z,87.96
2017-11-19T00:46:59.871Z,88.11
2017-11-19T00:48:04.566Z,88.39
2017-11-19T00:49:09.340Z,87.87
2017-11-19T00:50:14.037Z,88.09
2017-11-19T00:51:19.010Z,87.80
2017-11-19T00:52:23.794Z,88.81
2017-11-19T00:53:29.350Z,88.84
2017-11-19T00:54:33.999Z,88.97
2017-11-19T00:55:38.872Z,88.64
2017-11-19T00:56:43.581Z,90.06
2017-11-19T00:57:48.510Z,89.29
2017-11-19T00:58:53.210Z,88.50
2017-11-19T00:59:57.933Z,87.66
2017-11-19T01:01:02.615Z,87.54
2017-11-19T01:02:07.411Z,88.20
2017-11-19T01:03:12.188Z,88.32
2017-11-19T01:04:17.314Z,88.52
2017-11-19T01:05:23.621Z,89.75
2017-11-19T01:06:28.501Z,89.46
2017-11-19T01:07:33.515Z,88.81
2017-11-19T01:08:38.309Z,88.61
2017-11-19T01:09:43.173Z,88.99
2017-11-19T01:10:48.400Z,89.91
2017-11-19T01:11:53.214Z,89.14
2017-11-19T01:12:58.059Z,90.29
2017-11-19T01:14:02.856Z,90.45
2017-11-19T01:15:07.613Z,89.36
2017-11-19T01:16:12.247Z,90.04
2017-11-19T01:17:17.311Z,90.48
2017-11-19T01:18:22.168Z,89.77
2017-11-19T01:19:26.963Z,90.04
2017-11-19T01:20:31.911Z,91.34
2017-11-19T01:21:36.675Z,91.32
2017-11-19T01:22:41.457Z,90.96
2017-11-19T01:23:46.495Z,91.52
2017-11-19T01:24:51.281Z,91.94
2017-11-19T01:25:56.025Z,92.15
2017-11-19T01:27:00.730Z,92.54
2017-11-19T01:28:05.427Z,92.32
2017-11-19T01:29:10.206Z,92.38
2017-11-19T01:30:16.088Z,92.84
2017-11-19T01:31:20.972Z,93.01
2017-11-19T01:32:25.767Z,92.10
2017-11-19T01:33:30.583Z,92.04
2017-11-19T01:34:35.299Z,91.68
2017-11-19T01:35:39.957Z,92.94
2017-11-19T01:36:44.920Z,92.30
2017-11-19T01:37:49.609Z,91.15
2017-11-19T01:38:54.366Z,91.67
2017-11-19T01:39:59.160Z,91.20
2017-11-19T01:41:03.961Z,90.92
2017-11-19T01:42:08.770Z,90.65
2017-11-19T01:43:13.822Z,91.28
2017-11-19T01:44:18.612Z,90.84
2017-11-19T01:45:23.349Z,90.51
2017-11-19T01:46:28.148Z,90.06
2017-11-19T01:47:32.904Z,88.53
2017-11-19T01:48:37.671Z,86.73
2017-11-19T01:49:42.799Z,86.67
2017-11-19T01:50:47.936Z,86.79
2017-11-19T01:51:52.726Z,86.36
2017-11-19T01:52:57.499Z,87.77
2017-11-19T01:54:02.338Z,87.58
2017-11-19T01:55:07.126Z,88.06
2017-11-19T01:56:13.469Z,87.91
2017-11-19T01:57:18.279Z,87.59
2017-11-19T01:58:23.035Z,88.08
2017-11-19T01:59:27.801Z,87.17
2017-11-19T02:00:32.775Z,87.68
2017-11-19T02:01:37.606Z,87.88
2017-11-19T02:02:42.647Z,88.60
2017-11-19T02:03:47.437Z,88.26
2017-11-19T02:04:52.236Z,88.51
2017-11-19T02:05:57.010Z,89.36
2017-11-19T02:07:01.779Z,88.81
2017-11-19T02:08:06.592Z,87.45
2017-11-19T02:09:11.635Z,87.32
2017-11-19T02:10:16.427Z,86.85
2017-11-19T02:11:21.154Z,86.97
2017-11-19T02:12:25.924Z,87.20
2017-11-19T02:13:30.713Z,86.93
2017-11-19T02:14:35.451Z,86.95
2017-11-19T02:15:40.526Z,87.53
2017-11-19T02:16:45.255Z,87.13
2017-11-19T02:17:50.295Z,86.99
2017-11-19T02:18:55.078Z,86.95
2017-11-19T02:19:59.828Z,87.36
2017-11-19T02:21:04.643Z,87.41
2017-11-19T02:22:09.670Z,87.63
2017-11-19T02:23:14.412Z,88.00
2017-11-19T02:24:19.195Z,87.57
2017-11-19T02:25:24.120Z,87.17
2017-11-19T02:26:28.872Z,87.33
2017-11-19T02:27:33.641Z,87.82
2017-11-19T02:28:38.408Z,88.37
2017-11-19T02:29:43.211Z,87.13
2017-11-19T02:30:53.695Z,87.93
2017-11-19T02:31:58.371Z,87.89
2017-11-19T02:33:03.091Z,87.45
2017-11-19T02:34:08.810Z,87.66
2017-11-19T02:35:13.480Z,87.88
2017-11-19T02:36:18.195Z,87.95
2017-11-19T02:37:22.885Z,87.24
2017-11-19T02:38:28.538Z,87.10
2017-11-19T02:39:33.167Z,86.99
2017-11-19T02:40:38.275Z,88.28
2017-11-19T02:41:43.016Z,87.50
2017-11-19T02:42:47.710Z,87.56
2017-11-19T02:43:52.359Z,87.41
2017-11-19T02:44:57.062Z,87.49
2017-11-19T02:46:01.837Z,87.76
2017-11-19T02:47:06.866Z,87.92
2017-11-19T02:48:11.584Z,88.17
2017-11-19T02:49:16.302Z,88.85
2017-11-19T02:50:21.932Z,89.52
2017-11-19T02:51:26.721Z,89.23
2017-11-19T02:52:31.465Z,89.29
2017-11-19T02:53:36.492Z,88.88
2017-11-19T02:54:41.263Z,88.52
2017-11-19T02:55:46.037Z,88.05
2017-11-19T02:56:50.813Z,88.12
2017-11-19T02:57:55.579Z,88.00
2017-11-19T02:59:00.356Z,87.01
2017-11-19T03:00:05.482Z,87.51
2017-11-19T03:01:10.255Z,87.28
2017-11-19T03:02:15.012Z,87.25
2017-11-19T03:03:20.083Z,87.35
2017-11-19T03:04:24.841Z,87.06
2017-11-19T03:05:29.666Z,86.47
2017-11-19T03:06:34.723Z,86.33
2017-11-19T03:07:39.460Z,87.11
2017-11-19T03:08:44.251Z,87.40
2017-11-19T03:09:49.208Z,87.37
2017-11-19T03:10:53.978Z,87.68
2017-11-19T03:11:58.644Z,86.76
2017-11-19T03:13:03.672Z,86.51
2017-11-19T03:14:08.332Z,86.57
2017-11-19T03:15:13.109Z,85.56
2017-11-19T03:16:17.889Z,85.89
2017-11-19T03:17:22.662Z,86.77
2017-11-19T03:18:27.459Z,87.24
2017-11-19T03:19:32.596Z,87.44
2017-11-19T03:20:37.406Z,87.74
2017-11-19T03:21:42.164Z,86.91
2017-11-19T03:22:46.956Z,86.73
2017-11-19T03:23:51.704Z,86.83
2017-11-19T03:24:56.428Z,87.14
2017-11-19T03:26:01.518Z,87.27
2017-11-19T03:27:06.229Z,87.40
2017-11-19T03:28:10.938Z,86.98
2017-11-19T03:29:15.648Z,87.40
2017-11-19T03:30:20.387Z,87.82
2017-11-19T03:31:25.175Z,88.90
2017-11-19T03:32:30.151Z,89.40
2017-11-19T03:33:34.828Z,88.16
2017-11-19T03:34:39.553Z,88.38
2017-11-19T03:35:44.305Z,88.31
2017-11-19T03:36:49.028Z,87.42
2017-11-19T03:37:53.726Z,86.83
2017-11-19T03:38:58.709Z,87.14
2017-11-19T03:40:03.450Z,87.28
2017-11-19T03:41:08.159Z,87.18
2017-11-19T03:42:12.865Z,87.68
2017-11-19T03:43:17.596Z,87.33
2017-11-19T03:44:22.326Z,87.65
2017-11-19T03:45:27.853Z,87.51
2017-11-19T03:46:32.656Z,87.78
2017-11-19T03:47:37.447Z,88.62
2017-11-19T03:48:42.447Z,87.96
2017-11-19T03:49:47.197Z,87.87
2017-11-19T03:50:52.015Z,88.46
2017-11-19T03:51:57.050Z,88.34
2017-11-19T03:53:01.892Z,88.87
2017-11-19T03:54:06.656Z,87.98
2017-11-19T03:55:11.413Z,88.25
2017-11-19T03:56:16.261Z,88.48
2017-11-19T03:57:20.945Z,89.14
2017-11-19T03:58:26.015Z,89.62
2017-11-19T03:59:30.691Z,89.85
2017-11-19T04:00:35.388Z,88.73
2017-11-19T04:01:40.096Z,88.12
2017-11-19T04:02:44.796Z,89.46
2017-11-19T04:03:49.518Z,89.62
2017-11-19T04:04:54.478Z,88.77
2017-11-19T04:05:59.256Z,88.78
2017-11-19T04:07:04.099Z,88.12
2017-11-19T04:08:08.924Z,88.58
2017-11-19T04:09:13.712Z,89.20
2017-11-19T04:10:18.477Z,89.60
2017-11-19T04:11:23.708Z,89.67
2017-11-19T04:12:28.458Z,89.60
2017-11-19T04:13:33.242Z,89.46
2017-11-19T04:14:38.067Z,89.20
2017-11-19T04:15:42.824Z,89.40
2017-11-19T04:16:47.534Z,89.00
2017-11-19T04:17:52.577Z,88.81
2017-11-19T04:18:57.282Z,89.83
2017-11-19T04:20:02.000Z,89.20
2017-11-19T04:21:06.748Z,89.54
2017-11-19T04:22:11.547Z,88.86
2017-11-19T04:23:16.264Z,88.59
2017-11-19T04:24:21.270Z,89.39
2017-11-19T04:25:25.962Z,88.90
2017-11-19T04:26:30.599Z,89.59
2017-11-19T04:27:35.295Z,89.90
2017-11-19T04:28:40.012Z,89.09
2017-11-19T04:29:44.731Z,88.60
2017-11-19T04:30:49.703Z,89.94
2017-11-19T04:31:54.387Z,90.08
2017-11-19T04:32:59.048Z,89.17
2017-11-19T04:34:04.207Z,89.21
2017-11-19T04:35:08.928Z,89.13
2017-11-19T04:36:13.702Z,89.47
2017-11-19T04:37:18.688Z,89.56
2017-11-19T04:38:23.709Z,89.85
2017-11-19T04:39:28.658Z,89.48
2017-11-19T04:40:33.372Z,90.26
2017-11-19T04:41:38.079Z,90.17
2017-11-19T04:42:42.805Z,90.22
2017-11-19T04:43:47.790Z,89.67
2017-11-19T04:44:52.467Z,89.16
2017-11-19T04:45:57.223Z,88.97
2017-11-19T04:47:01.927Z,89.81
2017-11-19T04:48:06.639Z,89.62
2017-11-19T04:49:11.366Z,89.67
2017-11-19T04:50:16.156Z,89.28
2017-11-19T04:51:20.744Z,89.41
2017-11-19T04:52:25.429Z,88.98
2017-11-19T04:53:30.138Z,89.67
2017-11-19T04:54:35.115Z,89.50
2017-11-19T04:55:39.835Z,89.64
2017-11-19T04:56:44.826Z,89.72
2017-11-19T04:57:49.572Z,89.74
2017-11-19T04:58:54.607Z,89.34
2017-11-19T04:59:59.293Z,89.72
2017-11-19T05:15:19.570Z,90.59
2017-11-19T05:16:24.203Z,89.94
2017-11-19T05:17:29.233Z,90.26
2017-11-19T05:18:33.752Z,89.68
2017-11-19T05:19:38.476Z,89.57
2017-11-19T05:20:43.311Z,89.31
2017-11-19T05:21:47.984Z,89.39
2017-11-19T05:22:52.578Z,89.28
2017-11-19T05:23:57.124Z,89.29
2017-11-19T05:25:01.708Z,89.32
2017-11-19T05:26:06.389Z,88.83
2017-11-19T05:27:11.376Z,89.36
2017-11-19T05:28:16.073Z,88.95
2017-11-19T05:29:20.736Z,88.95
2017-11-19T05:30:25.296Z,88.76
2017-11-19T05:31:29.838Z,88.84
2017-11-19T05:32:34.631Z,88.54
2017-11-19T05:33:39.582Z,88.43
2017-11-19T05:34:44.132Z,88.97
2017-11-19T05:35:48.834Z,88.58
2017-11-19T05:36:53.600Z,88.33
2017-11-19T05:37:58.692Z,88.87
2017-11-19T05:39:03.372Z,88.63
2017-11-19T05:40:08.356Z,88.69
2017-11-19T05:41:13.086Z,88.52
2017-11-19T05:42:17.813Z,88.71
2017-11-19T05:43:22.496Z,88.41
2017-11-19T05:44:27.199Z,88.66
2017-11-19T05:45:31.799Z,88.03
2017-11-19T05:46:36.754Z,88.23
2017-11-19T05:47:41.376Z,88.67
2017-11-19T05:48:46.000Z,88.81
2017-11-19T05:49:50.637Z,88.93
2017-11-19T05:50:55.245Z,88.40
2017-11-19T05:51:59.893Z,87.90
2017-11-19T05:53:04.864Z,87.74
2017-11-19T05:54:09.571Z,87.97
2017-11-19T05:55:14.277Z,87.41
2017-11-19T05:56:18.974Z,87.48
2017-11-19T05:57:23.755Z,88.18
2017-11-19T05:58:28.487Z,87.43
2017-11-19T05:59:33.525Z,88.02
2017-11-19T06:00:38.283Z,88.53
2017-11-19T06:01:42.960Z,88.39
2017-11-19T06:02:47.680Z,88.40
2017-11-19T06:03:52.378Z,88.26
2017-11-19T06:04:57.117Z,88.50
2017-11-19T06:06:02.171Z,88.28
2017-11-19T06:07:06.971Z,88.75
2017-11-19T06:08:11.767Z,88.57
2017-11-19T06:09:16.468Z,88.58
2017-11-19T06:10:21.129Z,87.98
2017-11-19T06:11:25.874Z,88.35
2017-11-19T06:12:30.964Z,88.50
2017-11-19T06:13:35.668Z,88.63
2017-11-19T06:14:40.353Z,88.82
2017-11-19T06:15:45.069Z,88.59
2017-11-19T06:16:49.800Z,89.30
2017-11-19T06:17:54.511Z,88.93
2017-11-19T06:18:59.510Z,89.03
2017-11-19T06:20:04.283Z,88.73
2017-11-19T06:21:08.980Z,89.19
2017-11-19T06:22:13.672Z,89.01
2017-11-19T06:23:18.460Z,88.88
2017-11-19T06:24:23.212Z,88.65
2017-11-19T06:25:28.249Z,88.61
2017-11-19T06:26:32.950Z,88.59
2017-11-19T06:27:37.646Z,88.69
2017-11-19T06:28:42.341Z,89.04
2017-11-19T06:29:48.550Z,88.92
2017-11-19T06:30:53.269Z,88.80
2017-11-19T06:31:58.405Z,88.21
2017-11-19T06:33:03.133Z,88.36
2017-11-19T06:34:07.843Z,88.53
2017-11-19T06:35:12.552Z,88.39
2017-11-19T06:36:17.281Z,88.53
2017-11-19T06:37:22.031Z,88.59
2017-11-19T06:38:27.037Z,88.59
2017-11-19T06:39:32.133Z,88.38
2017-11-19T06:40:36.841Z,88.38
2017-11-19T06:41:41.408Z,88.19
2017-11-19T06:42:45.944Z,87.99
2017-11-19T06:43:50.993Z,88.09
2017-11-19T06:44:55.998Z,88.17
2017-11-19T06:46:00.728Z,88.43
2017-11-19T06:47:05.357Z,88.12
2017-11-19T06:48:09.961Z,88.47
2017-11-19T06:49:14.586Z,88.53
2017-11-19T06:50:19.232Z,88.47
2017-11-19T06:51:24.224Z,88.57
2017-11-19T06:52:29.183Z,88.59
2017-11-19T06:53:33.869Z,88.67
2017-11-19T06:54:38.573Z,88.17
2017-11-19T06:55:43.331Z,88.59
2017-11-19T06:56:48.150Z,88.16
2017-11-19T06:57:53.456Z,88.07
2017-11-19T06:58:58.273Z,88.72
2017-11-19T07:00:03.106Z,88.68
2017-11-19T07:01:07.937Z,88.15
2017-11-19T07:02:12.771Z,88.42
2017-11-19T07:03:17.486Z,88.20
2017-11-19T07:04:22.745Z,87.89
2017-11-19T07:05:27.460Z,88.55
2017-11-19T07:06:32.160Z,88.08
2017-11-19T07:07:36.840Z,88.20
2017-11-19T07:08:41.580Z,88.32
2017-11-19T07:09:46.232Z,88.81
2017-11-19T07:10:51.319Z,88.31
2017-11-19T07:11:56.052Z,88.02
2017-11-19T07:13:00.656Z,87.93
2017-11-19T07:14:05.330Z,88.18
2017-11-19T07:15:10.997Z,87.15
2017-11-19T07:16:15.804Z,87.86
2017-11-19T07:17:21.016Z,87.92
2017-11-19T07:18:25.716Z,88.11
2017-11-19T07:19:30.416Z,87.88
2017-11-19T07:20:35.088Z,87.76
2017-11-19T07:21:39.632Z,87.59
2017-11-19T07:22:44.195Z,87.49
2017-11-19T07:23:49.197Z,87.32
2017-11-19T07:24:53.896Z,87.47
2017-11-19T07:25:58.646Z,87.75
2017-11-19T07:27:03.433Z,88.11
2017-11-19T07:28:08.492Z,87.92
2017-11-19T07:29:13.343Z,87.55
2017-11-19T07:30:18.879Z,88.03
2017-11-19T07:31:23.796Z,88.38
2017-11-19T07:32:28.630Z,88.44
2017-11-19T07:33:33.372Z,88.49
2017-11-19T07:34:38.311Z,88.74
2017-11-19T07:35:43.071Z,89.35
2017-11-19T07:36:47.907Z,88.80
2017-11-19T07:37:53.446Z,88.95
2017-11-19T07:38:58.224Z,89.28
2017-11-19T07:40:03.159Z,89.58
2017-11-19T07:41:07.873Z,89.33
2017-11-19T07:42:12.653Z,89.32
2017-11-19T07:43:17.370Z,89.03
2017-11-19T07:44:22.113Z,88.80
2017-11-19T07:45:26.832Z,88.59
2017-11-19T07:46:32.530Z,88.63
2017-11-19T07:47:38.245Z,88.44
2017-11-19T07:48:42.978Z,88.81
2017-11-19T07:49:47.713Z,88.98
2017-11-19T07:50:52.447Z,88.65
2017-11-19T07:51:57.152Z,88.51
2017-11-19T07:53:01.881Z,88.54
2017-11-19T07:54:07.030Z,88.54
2017-11-19T07:55:11.741Z,88.76
2017-11-19T07:56:16.472Z,88.12
2017-11-19T07:57:21.171Z,89.59
2017-11-19T07:58:25.848Z,88.93
2017-11-19T07:59:30.573Z,88.09
2017-11-19T08:00:36.246Z,88.48
2017-11-19T08:01:40.958Z,88.37
2017-11-19T08:02:45.746Z,88.09
2017-11-19T08:03:50.439Z,88.07
2017-11-19T08:04:55.214Z,88.62
2017-11-19T08:06:00.062Z,88.02
2017-11-19T08:07:05.323Z,88.15
2017-11-19T08:08:10.129Z,88.23
2017-11-19T08:09:14.878Z,87.90
2017-11-19T08:10:19.697Z,88.23
2017-11-19T08:11:24.388Z,88.42
2017-11-19T08:12:29.113Z,88.05
2017-11-19T08:13:34.176Z,87.56
2017-11-19T08:14:39.069Z,87.97
2017-11-19T08:15:43.884Z,87.96
2017-11-19T08:16:48.866Z,88.17
2017-11-19T08:17:53.643Z,88.35
2017-11-19T08:18:58.619Z,88.46
2017-11-19T08:20:03.925Z,88.46
2017-11-19T08:21:09.000Z,88.81
2017-11-19T08:22:13.929Z,88.45
2017-11-19T08:23:18.842Z,89.25
2017-11-19T08:24:23.637Z,88.59
2017-11-19T08:25:28.456Z,88.11
2017-11-19T08:26:33.604Z,87.97
2017-11-19T08:27:38.351Z,88.28
2017-11-19T08:28:43.090Z,87.02
2017-11-19T08:29:47.817Z,87.06
2017-11-19T08:30:52.603Z,87.18
2017-11-19T08:31:57.351Z,87.41
2017-11-19T08:33:02.650Z,87.62
2017-11-19T08:34:07.476Z,87.50
2017-11-19T08:35:12.321Z,87.73
2017-11-19T08:36:17.162Z,87.71
2017-11-19T08:37:21.989Z,87.18
2017-11-19T08:38:26.752Z,86.62
2017-11-19T08:39:31.979Z,86.89
2017-11-19T08:40:36.821Z,86.58
2017-11-19T08:41:41.626Z,85.54
2017-11-19T08:42:46.457Z,86.41
2017-11-19T08:43:51.245Z,86.90
2017-11-19T08:44:56.079Z,86.35
2017-11-19T08:46:01.104Z,86.23
2017-11-19T08:47:07.574Z,85.78
2017-11-19T08:48:12.297Z,86.80
2017-11-19T08:49:16.924Z,86.07
2017-11-19T08:50:21.579Z,86.43
2017-11-19T08:51:26.243Z,86.97
2017-11-19T08:52:31.184Z,87.00
2017-11-19T08:53:35.798Z,87.21
2017-11-19T08:54:40.452Z,86.69
2017-11-19T08:55:45.156Z,87.25
2017-11-19T08:56:49.858Z,86.70
2017-11-19T08:57:54.475Z,86.46
2017-11-19T08:58:59.506Z,86.42
2017-11-19T09:00:04.164Z,86.44
2017-11-19T09:01:08.878Z,86.43
2017-11-19T09:02:13.612Z,85.78
2017-11-19T09:03:18.360Z,85.68
2017-11-19T09:04:23.068Z,86.07
2017-11-19T09:05:28.088Z,86.78
2017-11-19T09:06:32.788Z,86.50
2017-11-19T09:07:37.508Z,86.69
2017-11-19T09:08:42.245Z,86.39
2017-11-19T09:09:46.923Z,86.46
2017-11-19T09:10:51.802Z,86.34
2017-11-19T09:11:56.851Z,86.28
2017-11-19T09:13:01.628Z,86.69
2017-11-19T09:14:06.423Z,86.67
2017-11-19T09:15:11.267Z,86.10
2017-11-19T09:16:16.007Z,86.25
2017-11-19T09:17:20.773Z,86.60
2017-11-19T09:18:25.809Z,86.02
2017-11-19T09:19:30.576Z,86.50
2017-11-19T09:20:35.383Z,86.35
2017-11-19T09:21:40.184Z,86.07
2017-11-19T09:22:45.220Z,85.83
2017-11-19T09:23:50.161Z,86.05
2017-11-19T09:24:54.819Z,85.88
2017-11-19T09:25:59.528Z,86.98
2017-11-19T09:27:04.223Z,85.90
2017-11-19T09:28:08.931Z,85.91
2017-11-19T09:29:13.731Z,86.26
2017-11-19T09:30:18.873Z,85.78
2017-11-19T09:31:23.700Z,85.64
2017-11-19T09:32:28.541Z,85.33
2017-11-19T09:33:33.986Z,85.38
2017-11-19T09:34:38.806Z,85.63
2017-11-19T09:35:43.675Z,85.16
2017-11-19T09:36:48.798Z,85.43
2017-11-19T09:37:53.654Z,86.15
2017-11-19T09:38:58.534Z,86.41
2017-11-19T09:40:03.223Z,86.04
2017-11-19T09:41:08.046Z,86.09
2017-11-19T09:42:12.766Z,86.10
2017-11-19T09:43:17.853Z,86.23
2017-11-19T09:44:22.552Z,85.76
2017-11-19T09:45:27.244Z,85.73
2017-11-19T09:46:32.072Z,85.70
2017-11-19T09:47:36.858Z,85.90
2017-11-19T09:48:41.699Z,85.49
2017-11-19T09:49:47.040Z,85.17
2017-11-19T09:50:51.883Z,85.22
2017-11-19T09:51:56.810Z,84.95
2017-11-19T09:53:01.610Z,84.28
2017-11-19T09:54:06.441Z,84.64
2017-11-19T09:55:11.082Z,84.77
2017-11-19T09:56:16.064Z,85.13
2017-11-19T09:57:20.721Z,83.65
2017-11-19T09:59:44.379Z,83.45
2017-11-19T10:00:49.188Z,83.46
2017-11-19T10:01:54.006Z,83.30
2017-11-19T10:02:59.142Z,82.75
2017-11-19T10:04:03.863Z,82.88
2017-11-19T10:05:08.617Z,84.60
2017-11-19T10:06:13.399Z,84.11
2017-11-19T10:07:18.129Z,84.42
2017-11-19T10:08:22.952Z,84.68
2017-11-19T10:09:28.056Z,84.88
2017-11-19T10:10:32.839Z,85.05
2017-11-19T10:11:37.535Z,84.97
2017-11-19T10:12:42.266Z,84.33
2017-11-19T10:13:46.860Z,84.06
2017-11-19T10:14:51.642Z,84.12
2017-11-19T10:15:56.705Z,83.40
2017-11-19T10:17:01.490Z,83.85
2017-11-19T10:18:06.273Z,83.26
2017-11-19T10:19:11.018Z,83.45
2017-11-19T10:20:15.746Z,83.40
2017-11-19T10:21:20.568Z,84.08
2017-11-19T10:22:25.723Z,84.12
2017-11-19T10:23:30.867Z,83.81
2017-11-19T10:24:35.686Z,83.91
2017-11-19T10:25:40.498Z,83.19
2017-11-19T10:26:45.372Z,83.48
2017-11-19T10:27:50.176Z,83.67
2017-11-19T10:28:55.316Z,83.71
2017-11-19T10:30:00.136Z,83.65
2017-11-19T10:31:04.914Z,83.70
2017-11-19T10:32:09.745Z,83.73
2017-11-19T10:33:14.563Z,84.19
2017-11-19T10:34:19.371Z,84.15
2017-11-19T10:35:24.457Z,83.73
2017-11-19T10:36:29.283Z,83.46
2017-11-19T10:37:34.139Z,82.71
2017-11-19T10:38:38.955Z,80.42
2017-11-19T10:39:43.862Z,81.45
2017-11-19T10:40:48.711Z,82.57
2017-11-19T10:41:53.858Z,81.37
2017-11-19T10:42:58.722Z,82.20
2017-11-19T10:44:03.595Z,82.47
2017-11-19T10:45:08.415Z,82.65
2017-11-19T10:46:13.265Z,82.53
2017-11-19T10:47:18.091Z,82.20
2017-11-19T10:48:23.105Z,82.92
2017-11-19T10:49:27.863Z,82.68
2017-11-19T10:50:32.652Z,82.29
2017-11-19T10:51:37.452Z,81.96
2017-11-19T10:52:42.221Z,81.83
2017-11-19T10:53:46.971Z,82.13
2017-11-19T10:54:51.712Z,81.74
2017-11-19T10:55:56.440Z,82.14
2017-11-19T10:57:01.214Z,82.38
2017-11-19T10:58:05.891Z,81.06
2017-11-19T11:15:22.420Z,80.08
2017-11-19T11:16:27.259Z,79.66
2017-11-19T11:17:32.205Z,79.13
2017-11-19T11:18:37.002Z,79.57
2017-11-19T11:19:42.989Z,79.88
2017-11-19T11:20:48.477Z,79.21
2017-11-19T11:21:53.216Z,78.61
2017-11-19T11:22:57.930Z,76.79
2017-11-19T11:24:02.760Z,78.15
2017-11-19T11:25:07.573Z,79.57
2017-11-19T11:26:12.388Z,79.22
2017-11-19T11:27:17.256Z,79.33
2017-11-19T11:28:21.848Z,76.50
2017-11-19T11:29:26.604Z,76.61
2017-11-19T11:30:31.175Z,78.41
2017-11-19T11:31:35.787Z,78.18
2017-11-19T11:32:40.559Z,78.92
2017-11-19T11:33:45.611Z,78.82
2017-11-19T11:34:50.431Z,79.31
2017-11-19T11:35:54.996Z,79.57
2017-11-19T11:36:59.697Z,79.60
2017-11-19T11:38:06.256Z,79.26
2017-11-19T11:39:10.981Z,79.87
2017-11-19T11:40:16.181Z,79.88
2017-11-19T11:41:21.423Z,80.12
2017-11-19T11:42:26.126Z,79.77
2017-11-19T11:43:31.448Z,79.11
2017-11-19T11:44:36.126Z,79.54
2017-11-19T11:45:41.478Z,79.51
2017-11-19T11:46:46.613Z,80.39
2017-11-19T11:47:51.466Z,80.37
2017-11-19T11:48:56.219Z,79.72
2017-11-19T11:50:00.976Z,79.23
2017-11-19T11:51:05.724Z,79.78
2017-11-19T11:52:10.482Z,79.58
2017-11-19T11:53:15.469Z,79.85
2017-11-19T11:54:20.235Z,80.09
2017-11-19T11:55:25.312Z,79.85
2017-11-19T11:56:30.088Z,79.86
2017-11-19T11:57:34.799Z,80.39
2017-11-19T11:58:39.564Z,81.05
2017-11-19T11:59:44.545Z,81.07
2017-11-19T12:00:49.357Z,82.07
2017-11-19T12:01:54.199Z,81.67
2017-11-19T12:02:59.051Z,82.04
2017-11-19T12:04:03.860Z,82.55
2017-11-19T12:05:08.668Z,82.38
2017-11-19T12:06:13.774Z,82.60
2017-11-19T12:07:18.597Z,83.05
2017-11-19T12:08:23.496Z,82.93
2017-11-19T12:09:28.361Z,82.44
2017-11-19T12:10:33.292Z,82.38
2017-11-19T12:11:38.284Z,82.22
2017-11-19T12:12:43.408Z,82.87
2017-11-19T12:13:48.389Z,83.10
2017-11-19T12:14:53.198Z,82.57
2017-11-19T12:15:58.036Z,82.16
2017-11-19T12:17:02.921Z,82.39
2017-11-19T12:18:07.727Z,82.14
2017-11-19T12:19:12.997Z,82.57
2017-11-19T12:20:17.926Z,82.23
2017-11-19T12:21:22.762Z,82.28
2017-11-19T12:22:27.599Z,81.97
2017-11-19T12:23:32.451Z,81.14
2017-11-19T12:24:37.431Z,81.60
2017-11-19T12:25:42.545Z,81.52
2017-11-19T12:26:47.347Z,81.10
2017-11-19T12:27:52.446Z,81.03
2017-11-19T12:28:57.210Z,80.34
2017-11-19T12:30:02.021Z,81.01
2017-11-19T12:31:06.853Z,80.88
2017-11-19T12:32:11.931Z,80.82
2017-11-19T12:33:17.486Z,80.91
2017-11-19T12:34:22.242Z,80.99
2017-11-19T12:35:27.055Z,80.87
2017-11-19T12:36:31.711Z,80.56
2017-11-19T12:37:36.509Z,80.43
2017-11-19T12:38:41.532Z,81.07
2017-11-19T12:39:46.270Z,80.98
2017-11-19T12:40:54.995Z,81.00
2017-11-19T12:41:59.761Z,80.69
2017-11-19T12:43:04.532Z,80.85
2017-11-19T12:44:09.363Z,80.55
2017-11-19T12:45:14.505Z,80.59
2017-11-19T12:46:19.381Z,80.47
2017-11-19T12:47:24.245Z,80.00
2017-11-19T12:48:29.174Z,80.26
2017-11-19T12:49:34.054Z,79.92
2017-11-19T12:50:38.928Z,80.30
2017-11-19T12:51:44.143Z,79.87
2017-11-19T12:52:48.977Z,79.48
2017-11-19T12:53:53.812Z,78.84
2017-11-19T12:54:58.571Z,80.37
2017-11-19T12:56:03.342Z,80.70
2017-11-19T12:57:08.171Z,79.69
2017-11-19T12:58:13.445Z,79.90
2017-11-19T12:59:18.357Z,79.95
2017-11-19T13:00:23.191Z,79.96
2017-11-19T13:01:28.030Z,79.64
2017-11-19T13:02:32.888Z,79.72
2017-11-19T13:03:37.798Z,79.29
2017-11-19T13:04:42.776Z,79.07
2017-11-19T13:05:47.404Z,78.97
2017-11-19T13:06:52.033Z,79.15
2017-11-19T13:07:56.703Z,79.06
2017-11-19T13:09:01.583Z,79.13
2017-11-19T13:10:06.354Z,79.13
2017-11-19T13:11:11.458Z,79.97
2017-11-19T13:12:16.878Z,79.74
2017-11-19T13:13:21.663Z,79.71
2017-11-19T13:14:26.430Z,80.07
2017-11-19T13:15:31.297Z,79.82
2017-11-19T13:16:36.218Z,79.30
2017-11-19T13:17:41.371Z,79.48
2017-11-19T13:18:46.236Z,79.60
2017-11-19T13:19:51.097Z,79.41
2017-11-19T13:20:56.059Z,79.90
2017-11-19T13:22:00.925Z,80.19
2017-11-19T13:23:05.734Z,79.53
2017-11-19T13:24:10.845Z,79.31
2017-11-19T13:25:15.625Z,79.49
2017-11-19T13:26:20.468Z,79.32
2017-11-19T13:27:25.301Z,78.03
2017-11-19T13:28:30.185Z,78.75
2017-11-19T13:29:39.223Z,77.67
2017-11-19T13:30:44.183Z,77.45
2017-11-19T13:31:49.339Z,76.87
2017-11-19T13:32:54.352Z,78.26
2017-11-19T13:33:59.223Z,78.05
2017-11-19T13:35:04.192Z,77.83
2017-11-19T13:36:09.128Z,77.17
2017-11-19T13:37:14.355Z,76.29
2017-11-19T13:38:19.239Z,76.08
2017-11-19T13:39:24.066Z,77.62
2017-11-19T13:40:28.901Z,77.91
2017-11-19T13:41:33.901Z,77.46
2017-11-19T13:42:38.829Z,77.53
2017-11-19T13:43:44.100Z,77.36
2017-11-19T13:44:48.907Z,77.75
2017-11-19T13:45:53.800Z,78.01
2017-11-19T13:46:58.707Z,77.84
2017-11-19T13:48:03.619Z,78.49
2017-11-19T13:49:09.798Z,78.82
2017-11-19T13:50:15.061Z,78.60
2017-11-19T13:51:19.955Z,78.46
2017-11-19T13:52:24.840Z,78.55
2017-11-19T13:53:29.698Z,78.91
2017-11-19T13:54:34.542Z,79.18
2017-11-19T13:55:39.864Z,79.03
2017-11-19T13:56:45.100Z,79.71
2017-11-19T13:57:49.994Z,80.11
2017-11-19T13:58:54.997Z,80.00
2017-11-19T13:59:59.973Z,80.31
2017-11-19T14:01:04.913Z,79.83
2017-11-19T14:02:09.758Z,79.62
2017-11-19T14:03:14.947Z,79.79
2017-11-19T14:04:19.778Z,80.53
2017-11-19T14:05:24.618Z,80.74
2017-11-19T14:06:30.181Z,80.50
2017-11-19T14:07:35.025Z,80.61
2017-11-19T14:08:39.990Z,80.91
2017-11-19T14:09:45.309Z,81.08
2017-11-19T14:10:50.152Z,80.82
2017-11-19T14:11:55.004Z,81.48
2017-11-19T14:12:59.840Z,81.64
2017-11-19T14:14:04.931Z,81.15
2017-11-19T14:15:09.731Z,81.47
2017-11-19T14:16:14.808Z,81.19
2017-11-19T14:17:19.645Z,81.96
2017-11-19T14:18:24.628Z,81.53
2017-11-19T14:19:29.513Z,81.70
2017-11-19T14:20:34.400Z,81.22
2017-11-19T14:21:39.270Z,81.63
2017-11-19T14:22:44.604Z,80.84
2017-11-19T14:23:49.535Z,80.96
2017-11-19T14:24:54.408Z,81.40
2017-11-19T14:25:59.256Z,81.30
2017-11-19T14:27:04.183Z,81.44